createdAt,value
2023-01-29T10:32:32.494Z,1.30
2023-01-29T10:35:04.452Z,1.30
2023-01-29T10:37:42.570Z,1.50
2023-01-29T10:40:39.001Z,1.60
2023-01-29T10:43:27.252Z,1.70
2023-01-29T10:46:06.183Z,1.80
2023-01-29T10:48:47.683Z,1.90
2023-01-29T10:51:55.693Z,2.10
2023-01-29T10:54:40.996Z,2.20
2023-01-29T10:57:37.401Z,2.30
2023-01-29T11:00:24.587Z,2.30
2023-01-29T11:02:52.889Z,2.10
2023-01-29T11:05:35.219Z,1.90
2023-01-29T11:08:15.093Z,1.80
2023-01-29T11:10:54.890Z,1.70
2023-01-29T11:13:26.581Z,1.50
2023-01-29T11:15:53.792Z,1.40
2023-01-29T11:18:20.698Z,1.30
2023-01-29T11:21:01.219Z,1.30
2023-01-29T11:23:31.828Z,1.30
2023-01-29T11:26:00.528Z,1.40
2023-01-29T11:28:50.100Z,1.50
2023-01-29T11:31:26.006Z,1.60
2023-01-29T11:34:03.141Z,1.50
2023-01-29T11:36:38.842Z,1.50
2023-01-29T11:39:08.836Z,1.50
2023-01-29T11:41:57.361Z,1.70
2023-01-29T11:44:31.807Z,1.90
2023-01-29T11:47:11.767Z,2.10
2023-01-29T11:49:40.932Z,2.20
2023-01-29T11:52:10.247Z,2.20
2023-01-29T11:54:46.941Z,2.20
2023-01-29T11:57:23.825Z,2.30
2023-01-29T11:59:52.415Z,2.30
2023-01-29T12:02:37.395Z,2.30
2023-01-29T12:05:16.152Z,2.30
2023-01-29T12:07:56.136Z,2.10
2023-01-29T12:10:41.214Z,2.00
2023-01-29T12:13:10.984Z,2.00
2023-01-29T12:15:39.747Z,1.90
2023-01-29T12:18:31.231Z,1.90
2023-01-29T12:21:02.778Z,1.90
2023-01-29T12:24:01.795Z,1.90
2023-01-29T12:27:01.562Z,1.90
2023-01-29T12:29:42.890Z,1.80
2023-01-29T12:32:47.394Z,1.60
2023-01-29T12:35:33.164Z,1.70
2023-01-29T12:38:02.984Z,1.60
2023-01-29T12:40:40.348Z,1.50
2023-01-29T12:43:16.704Z,1.40
2023-01-29T12:45:48.137Z,1.40
2023-01-29T12:48:21.801Z,1.50
2023-01-29T12:50:50.823Z,1.60
2023-01-29T12:53:32.188Z,1.60
2023-01-29T12:56:31.434Z,1.60
2023-01-29T12:59:01.566Z,1.50
2023-01-29T13:01:40.789Z,1.40
2023-01-29T13:08:41.813Z,1.60
2023-01-29T13:11:19.435Z,1.70
2023-01-29T13:13:56.832Z,1.70
2023-01-29T13:16:28.659Z,1.60
2023-01-29T13:18:59.912Z,1.40
2023-01-29T13:21:33.582Z,1.50
2023-01-29T13:24:05.105Z,1.50
2023-01-29T13:26:35.530Z,1.60
2023-01-29T15:49:35.893Z,0.20
2023-01-29T18:08:30.304Z,-3.10
2023-01-29T18:14:20.868Z,-3.30
2023-01-29T18:16:52.488Z,-3.30
2023-01-29T18:19:27.682Z,-3.30
